sensor_id;sensor_type;location;lat;lon;timestamp;temperature;humidity
20773;DHT22;10546;50.674;4.616;2023-11-18T09:08:02;7.90;99.90
20773;DHT22;10546;50.674;4.616;2023-11-18T09:10:31;8.00;99.90
20773;DHT22;10546;50.674;4.616;2023-11-18T09:12:57;8.00;99.90
20773;DHT22;10546;50.674;4.616;2023-11-18T09:15:23;8.00;99.90
20773;DHT22;10546;50.674;4.616;2023-11-18T09:17:49;8.00;99.90
20773;DHT22;10546;50.674;4.616;2023-11-18T09:20:15;8.20;99.90
20773;DHT22;10546;50.674;4.616;2023-11-18T09:22:48;8.10;99.90
20773;DHT22;10546;50.674;4.616;2023-11-18T09:25:14;8.20;99.90
20773;DHT22;10546;50.674;4.616;2023-11-18T09:27:41;8.30;99.90
20773;DHT22;10546;50.674;4.616;2023-11-18T09:30:07;8.30;99.90
20773;DHT22;10546;50.674;4.616;2023-11-18T09:32:42;8.40;99.90
20773;DHT22;10546;50.674;4.616;2023-11-18T09:35:08;8.40;99.90
20773;DHT22;10546;50.674;4.616;2023-11-18T09:37:38;8.30;99.90
20773;DHT22;10546;50.674;4.616;2023-11-18T09:40:04;8.40;99.90
20773;DHT22;10546;50.674;4.616;2023-11-18T09:42:43;8.30;99.90
20773;DHT22;10546;50.674;4.616;2023-11-18T09:45:10;8.30;99.90
20773;DHT22;10546;50.674;4.616;2023-11-18T09:47:45;8.40;99.90
20773;DHT22;10546;50.674;4.616;2023-11-18T09:50:17;8.30;99.90
20773;DHT22;10546;50.674;4.616;2023-11-18T09:52:48;8.50;99.90
20773;DHT22;10546;50.674;4.616;2023-11-18T09:56:05;8.30;99.90
20773;DHT22;10546;50.674;4.616;2023-11-18T09:58:30;8.30;99.90
20773;DHT22;10546;50.674;4.616;2023-11-18T10:01:18;8.50;99.90
20773;DHT22;10546;50.674;4.616;2023-11-18T10:03:47;8.50;99.90
20773;DHT22;10546;50.674;4.616;2023-11-18T10:06:16;8.60;99.90
20773;DHT22;10546;50.674;4.616;2023-11-18T10:08:41;8.50;99.90
20773;DHT22;10546;50.674;4.616;2023-11-18T10:11:12;8.50;99.90
20773;DHT22;10546;50.674;4.616;2023-11-18T10:13:39;8.50;99.90
20773;DHT22;10546;50.674;4.616;2023-11-18T10:16:09;8.50;99.90
20773;DHT22;10546;50.674;4.616;2023-11-18T10:18:35;8.50;99.90
20773;DHT22;10546;50.674;4.616;2023-11-18T10:21:03;8.50;99.90
20773;DHT22;10546;50.674;4.616;2023-11-18T10:23:33;8.40;99.90
20773;DHT22;10546;50.674;4.616;2023-11-18T10:25:59;8.40;99.90
20773;DHT22;10546;50.674;4.616;2023-11-18T10:28:30;8.40;99.90
20773;DHT22;10546;50.674;4.616;2023-11-18T10:30:59;8.60;99.90
20773;DHT22;10546;50.674;4.616;2023-11-18T10:33:33;8.60;99.90
20773;DHT22;10546;50.674;4.616;2023-11-18T10:36:02;8.40;99.90
20773;DHT22;10546;50.674;4.616;2023-11-18T10:38:33;8.50;99.90
20773;DHT22;10546;50.674;4.616;2023-11-18T10:41:05;8.50;99.90
20773;DHT22;10546;50.674;4.616;2023-11-18T10:43:31;8.50;99.90
20773;DHT22;10546;50.674;4.616;2023-11-18T10:46:12;8.50;99.90
20773;DHT22;10546;50.674;4.616;2023-11-18T10:48:47;8.50;99.90
20773;DHT22;10546;50.674;4.616;2023-11-18T10:51:15;8.30;99.90
20773;DHT22;10546;50.674;4.616;2023-11-18T10:53:44;8.20;99.90
20773;DHT22;10546;50.674;4.616;2023-11-18T10:56:24;8.30;99.90
20773;DHT22;10546;50.674;4.616;2023-11-18T10:58:53;8.40;99.90
20773;DHT22;10546;50.674;4.616;2023-11-18T11:01:29;8.40;99.90
20773;DHT22;10546;50.674;4.616;2023-11-18T11:03:55;8.40;99.90
20773;DHT22;10546;50.674;4.616;2023-11-18T11:06:27;8.40;99.90
20773;DHT22;10546;50.674;4.616;2023-11-18T11:08:57;8.50;99.90
20773;DHT22;10546;50.674;4.616;2023-11-18T11:11:39;8.50;99.90
20773;DHT22;10546;50.674;4.616;2023-11-18T11:14:06;8.70;99.90
20773;DHT22;10546;50.674;4.616;2023-11-18T11:16:40;8.60;99.90
20773;DHT22;10546;50.674;4.616;2023-11-18T11:19:13;8.50;99.90
20773;DHT22;10546;50.674;4.616;2023-11-18T11:21:52;8.60;99.90
20773;DHT22;10546;50.674;4.616;2023-11-18T11:30:14;8.70;99.90
20773;DHT22;10546;50.674;4.616;2023-11-18T11:32:58;8.70;99.90
20773;DHT22;10546;50.674;4.616;2023-11-18T11:35:33;8.60;99.90
20773;DHT22;10546;50.674;4.616;2023-11-18T11:38:03;8.50;99.90
20773;DHT22;10546;50.674;4.616;2023-11-18T11:40:37;8.50;99.90
20773;DHT22;10546;50.674;4.616;2023-11-18T11:43:06;8.60;99.90
20773;DHT22;10546;50.674;4.616;2023-11-18T11:45:35;8.60;99.90
20773;DHT22;10546;50.674;4.616;2023-11-18T11:48:02;8.60;99.90
20773;DHT22;10546;50.674;4.616;2023-11-18T11:51:16;8.70;99.90
20773;DHT22;10546;50.674;4.616;2023-11-18T11:54:06;8.80;99.90
20773;DHT22;10546;50.674;4.616;2023-11-18T11:56:50;8.70;99.90
20773;DHT22;10546;50.674;4.616;2023-11-18T12:02:17;8.90;99.90
20773;DHT22;10546;50.674;4.616;2023-11-18T12:04:47;8.80;99.90
20773;DHT22;10546;50.674;4.616;2023-11-18T12:07:18;8.90;99.90
20773;DHT22;10546;50.674;4.616;2023-11-18T12:09:47;8.90;99.90
20773;DHT22;10546;50.674;4.616;2023-11-18T12:12:21;8.80;99.90
20773;DHT22;10546;50.674;4.616;2023-11-18T12:14:53;8.70;99.90
20773;DHT22;10546;50.674;4.616;2023-11-18T12:17:22;8.70;99.90
20773;DHT22;10546;50.674;4.616;2023-11-18T12:19:49;8.70;99.90
20773;DHT22;10546;50.674;4.616;2023-11-18T12:22:17;8.90;99.90
20773;DHT22;10546;50.674;4.616;2023-11-18T12:27:44;8.80;99.90
20773;DHT22;10546;50.674;4.616;2023-11-18T12:32:57;8.70;99.90
20773;DHT22;10546;50.674;4.616;2023-11-18T12:40:56;8.70;99.90
20773;DHT22;10546;50.674;4.616;2023-11-18T12:46:45;8.80;99.90
20773;DHT22;10546;50.674;4.616;2023-11-18T12:49:18;8.70;99.90
20773;DHT22;10546;50.674;4.616;2023-11-18T12:51:53;8.80;99.90
20773;DHT22;10546;50.674;4.616;2023-11-18T12:54:22;8.70;99.90
20773;DHT22;10546;50.674;4.616;2023-11-18T12:56:51;8.60;99.90
20773;DHT22;10546;50.674;4.616;2023-11-18T12:59:19;8.70;99.90
20773;DHT22;10546;50.674;4.616;2023-11-18T13:01:51;8.80;99.90
20773;DHT22;10546;50.674;4.616;2023-11-18T13:04:18;8.80;99.90
20773;DHT22;10546;50.674;4.616;2023-11-18T13:06:48;8.80;99.90
20773;DHT22;10546;50.674;4.616;2023-11-18T13:09:15;8.80;99.90
20773;DHT22;10546;50.674;4.616;2023-11-18T13:11:54;8.70;99.90
20773;DHT22;10546;50.674;4.616;2023-11-18T13:14:27;8.70;99.90
20773;DHT22;10546;50.674;4.616;2023-11-18T13:16:53;8.70;99.90
20773;DHT22;10546;50.674;4.616;2023-11-18T13:19:29;8.80;99.90
20773;DHT22;10546;50.674;4.616;2023-11-18T13:21:58;8.90;99.90
20773;DHT22;10546;50.674;4.616;2023-11-18T13:24:28;8.90;99.90
20773;DHT22;10546;50.674;4.616;2023-11-18T13:26:55;8.80;99.90
20773;DHT22;10546;50.674;4.616;2023-11-18T13:29:23;8.80;99.90
20773;DHT22;10546;50.674;4.616;2023-11-18T13:31:50;8.80;99.90
20773;DHT22;10546;50.674;4.616;2023-11-18T13:34:19;8.80;99.90
20773;DHT22;10546;50.674;4.616;2023-11-18T13:36:49;9.00;99.90
20773;DHT22;10546;50.674;4.616;2023-11-18T13:39:18;9.00;99.90
20773;DHT22;10546;50.674;4.616;2023-11-18T13:41:48;9.00;99.90
20773;DHT22;10546;50.674;4.616;2023-11-18T13:44:34;9.00;99.90
20773;DHT22;10546;50.674;4.616;2023-11-18T13:47:10;9.10;99.90
20773;DHT22;10546;50.674;4.616;2023-11-18T13:49:40;9.10;99.90
20773;DHT22;10546;50.674;4.616;2023-11-18T13:52:07;9.10;99.90
20773;DHT22;10546;50.674;4.616;2023-11-18T13:54:35;9.10;99.90
20773;DHT22;10546;50.674;4.616;2023-11-18T13:57:02;9.00;99.90
20773;DHT22;10546;50.674;4.616;2023-11-18T13:59:29;9.20;99.90
20773;DHT22;10546;50.674;4.616;2023-11-18T14:01:56;9.10;99.90
20773;DHT22;10546;50.674;4.616;2023-11-18T14:04:29;9.00;99.90
20773;DHT22;10546;50.674;4.616;2023-11-18T14:07:02;9.10;99.90
20773;DHT22;10546;50.674;4.616;2023-11-18T14:09:35;9.10;99.90
20773;DHT22;10546;50.674;4.616;2023-11-18T14:12:08;9.20;99.90
20773;DHT22;10546;50.674;4.616;2023-11-18T14:14:34;9.30;99.90
20773;DHT22;10546;50.674;4.616;2023-11-18T14:17:00;9.20;99.90
20773;DHT22;10546;50.674;4.616;2023-11-18T14:19:26;9.20;99.90
20773;DHT22;10546;50.674;4.616;2023-11-18T14:21:55;9.30;99.90
20773;DHT22;10546;50.674;4.616;2023-11-18T14:24:21;9.30;99.90
20773;DHT22;10546;50.674;4.616;2023-11-18T14:26:56;9.30;99.90
20773;DHT22;10546;50.674;4.616;2023-11-18T14:29:22;9.30;99.90
20773;DHT22;10546;50.674;4.616;2023-11-18T14:31:48;9.30;99.90
20773;DHT22;10546;50.674;4.616;2023-11-18T14:34:14;9.30;99.90
20773;DHT22;10546;50.674;4.616;2023-11-18T14:36:41;9.30;99.90
20773;DHT22;10546;50.674;4.616;2023-11-18T14:39:08;9.30;99.90
20773;DHT22;10546;50.674;4.616;2023-11-18T14:41:37;9.30;99.90
20773;DHT22;10546;50.674;4.616;2023-11-18T14:44:03;9.30;99.90
20773;DHT22;10546;50.674;4.616;2023-11-18T14:46:30;9.30;99.90
20773;DHT22;10546;50.674;4.616;2023-11-18T14:48:59;9.40;99.90
20773;DHT22;10546;50.674;4.616;2023-11-18T14:51:25;9.50;99.90
20773;DHT22;10546;50.674;4.616;2023-11-18T14:53:51;9.50;99.90
20773;DHT22;10546;50.674;4.616;2023-11-18T14:56:17;9.40;99.90
20773;DHT22;10546;50.674;4.616;2023-11-18T14:58:43;9.40;99.90
20773;DHT22;10546;50.674;4.616;2023-11-18T15:01:12;9.40;99.90
20773;DHT22;10546;50.674;4.616;2023-11-18T15:03:37;9.40;99.90
20773;DHT22;10546;50.674;4.616;2023-11-18T15:06:03;9.40;99.90
20773;DHT22;10546;50.674;4.616;2023-11-18T15:08:31;9.40;99.90
20773;DHT22;10546;50.674;4.616;2023-11-18T15:10:57;9.50;99.90
20773;DHT22;10546;50.674;4.616;2023-11-18T15:13:27;9.40;99.90
20773;DHT22;10546;50.674;4.616;2023-11-18T15:15:53;9.40;99.90
20773;DHT22;10546;50.674;4.616;2023-11-18T15:18:18;9.50;99.90
20773;DHT22;10546;50.674;4.616;2023-11-18T15:20:45;9.40;99.90
20773;DHT22;10546;50.674;4.616;2023-11-18T15:23:12;9.60;99.90
20773;DHT22;10546;50.674;4.616;2023-11-18T15:25:39;9.50;99.90
20773;DHT22;10546;50.674;4.616;2023-11-18T15:28:06;9.60;99.90
20773;DHT22;10546;50.674;4.616;2023-11-18T15:30:39;9.60;99.90
20773;DHT22;10546;50.674;4.616;2023-11-18T15:33:05;9.50;99.90
20773;DHT22;10546;50.674;4.616;2023-11-18T15:35:34;9.60;99.90
20773;DHT22;10546;50.674;4.616;2023-11-18T15:38:03;9.60;99.90
20773;DHT22;10546;50.674;4.616;2023-11-18T15:40:31;9.70;99.90
20773;DHT22;10546;50.674;4.616;2023-11-18T15:42:56;9.70;99.90
20773;DHT22;10546;50.674;4.616;2023-11-18T15:45:23;9.70;99.90
20773;DHT22;10546;50.674;4.616;2023-11-18T15:47:50;9.60;99.90
20773;DHT22;10546;50.674;4.616;2023-11-18T15:50:16;9.70;99.90
20773;DHT22;10546;50.674;4.616;2023-11-18T15:52:43;9.80;99.90
20773;DHT22;10546;50.674;4.616;2023-11-18T15:55:09;9.80;99.90
20773;DHT22;10546;50.674;4.616;2023-11-18T15:57:42;9.80;99.90
20773;DHT22;10546;50.674;4.616;2023-11-18T16:00:10;9.80;99.90
20773;DHT22;10546;50.674;4.616;2023-11-18T16:02:43;9.80;99.90
20773;DHT22;10546;50.674;4.616;2023-11-18T16:05:11;10.00;99.90
20773;DHT22;10546;50.674;4.616;2023-11-18T16:07:39;9.90;99.90
20773;DHT22;10546;50.674;4.616;2023-11-18T16:10:06;9.90;99.90
20773;DHT22;10546;50.674;4.616;2023-11-18T16:12:32;9.80;99.90
20773;DHT22;10546;50.674;4.616;2023-11-18T16:14:58;9.90;99.90
20773;DHT22;10546;50.674;4.616;2023-11-18T16:17:23;9.90;99.90
20773;DHT22;10546;50.674;4.616;2023-11-18T16:19:49;10.00;99.90
20773;DHT22;10546;50.674;4.616;2023-11-18T16:22:15;9.90;99.90
20773;DHT22;10546;50.674;4.616;2023-11-18T16:24:41;9.90;99.90
20773;DHT22;10546;50.674;4.616;2023-11-18T16:27:06;10.00;99.90
20773;DHT22;10546;50.674;4.616;2023-11-18T16:29:32;10.00;99.90
20773;DHT22;10546;50.674;4.616;2023-11-18T16:31:58;10.10;99.90
20773;DHT22;10546;50.674;4.616;2023-11-18T16:34:24;10.10;99.90
20773;DHT22;10546;50.674;4.616;2023-11-18T16:36:51;10.10;99.90
20773;DHT22;10546;50.674;4.616;2023-11-18T16:39:22;10.20;99.90
20773;DHT22;10546;50.674;4.616;2023-11-18T16:41:47;10.10;99.90
20773;DHT22;10546;50.674;4.616;2023-11-18T16:44:14;10.10;99.90
20773;DHT22;10546;50.674;4.616;2023-11-18T16:46:40;10.20;99.90
20773;DHT22;10546;50.674;4.616;2023-11-18T16:49:06;10.20;99.90
20773;DHT22;10546;50.674;4.616;2023-11-18T16:51:34;10.40;99.90
20773;DHT22;10546;50.674;4.616;2023-11-18T16:54:00;10.30;99.90
20773;DHT22;10546;50.674;4.616;2023-11-18T16:56:26;10.40;99.90
20773;DHT22;10546;50.674;4.616;2023-11-18T16:58:54;10.40;99.90
20773;DHT22;10546;50.674;4.616;2023-11-18T17:01:19;10.40;99.90
20773;DHT22;10546;50.674;4.616;2023-11-18T17:03:50;10.60;99.90
20773;DHT22;10546;50.674;4.616;2023-11-18T17:06:15;10.40;99.90
20773;DHT22;10546;50.674;4.616;2023-11-18T17:08:42;10.50;99.90
20773;DHT22;10546;50.674;4.616;2023-11-18T17:11:08;10.40;99.90
20773;DHT22;10546;50.674;4.616;2023-11-18T17:13:34;10.40;99.90
20773;DHT22;10546;50.674;4.616;2023-11-18T17:16:00;10.50;99.90
20773;DHT22;10546;50.674;4.616;2023-11-18T17:18:26;10.50;99.90
20773;DHT22;10546;50.674;4.616;2023-11-18T17:20:51;10.60;99.90
20773;DHT22;10546;50.674;4.616;2023-11-18T17:23:17;10.60;99.90
20773;DHT22;10546;50.674;4.616;2023-11-18T17:25:44;10.40;99.90
20773;DHT22;10546;50.674;4.616;2023-11-18T17:28:09;10.50;99.90
20773;DHT22;10546;50.674;4.616;2023-11-18T17:30:35;10.40;99.90
20773;DHT22;10546;50.674;4.616;2023-11-18T17:33:03;10.50;99.90
20773;DHT22;10546;50.674;4.616;2023-11-18T17:35:29;10.50;99.90
20773;DHT22;10546;50.674;4.616;2023-11-18T17:37:55;10.40;99.90
20773;DHT22;10546;50.674;4.616;2023-11-18T17:40:23;10.60;99.90
20773;DHT22;10546;50.674;4.616;2023-11-18T17:42:49;10.60;99.90
20773;DHT22;10546;50.674;4.616;2023-11-18T17:45:16;10.70;99.90
20773;DHT22;10546;50.674;4.616;2023-11-18T17:47:43;10.70;99.90
20773;DHT22;10546;50.674;4.616;2023-11-18T17:50:10;10.70;99.90
20773;DHT22;10546;50.674;4.616;2023-11-18T17:52:42;10.70;99.90
20773;DHT22;10546;50.674;4.616;2023-11-18T17:55:09;10.70;99.90
20773;DHT22;10546;50.674;4.616;2023-11-18T17:57:35;10.70;99.90
20773;DHT22;10546;50.674;4.616;2023-11-18T18:00:01;10.70;99.90
20773;DHT22;10546;50.674;4.616;2023-11-18T18:02:27;10.80;99.90
20773;DHT22;10546;50.674;4.616;2023-11-18T18:04:52;10.90;99.90
20773;DHT22;10546;50.674;4.616;2023-11-18T18:07:18;10.90;99.90
20773;DHT22;10546;50.674;4.616;2023-11-18T18:09:43;10.90;99.90
20773;DHT22;10546;50.674;4.616;2023-11-18T18:12:12;11.00;99.90
20773;DHT22;10546;50.674;4.616;2023-11-18T18:14:42;10.90;99.90
20773;DHT22;10546;50.674;4.616;2023-11-18T18:17:08;10.90;99.90
20773;DHT22;10546;50.674;4.616;2023-11-18T18:19:35;11.00;99.90
20773;DHT22;10546;50.674;4.616;2023-11-18T18:22:01;10.90;99.90
20773;DHT22;10546;50.674;4.616;2023-11-18T18:24:29;11.00;99.90
20773;DHT22;10546;50.674;4.616;2023-11-18T18:26:54;11.00;99.90
20773;DHT22;10546;50.674;4.616;2023-11-18T18:29:21;11.10;99.90
20773;DHT22;10546;50.674;4.616;2023-11-18T18:31:47;11.10;99.90
20773;DHT22;10546;50.674;4.616;2023-11-18T18:34:13;11.00;99.90
20773;DHT22;10546;50.674;4.616;2023-11-18T18:36:40;11.20;99.90
20773;DHT22;10546;50.674;4.616;2023-11-18T18:39:07;11.20;99.90
20773;DHT22;10546;50.674;4.616;2023-11-18T18:41:47;11.10;99.90
20773;DHT22;10546;50.674;4.616;2023-11-18T18:44:13;11.10;99.90
20773;DHT22;10546;50.674;4.616;2023-11-18T18:46:40;11.20;99.90
20773;DHT22;10546;50.674;4.616;2023-11-18T18:49:06;11.30;99.90
20773;DHT22;10546;50.674;4.616;2023-11-18T18:51:36;11.30;99.90
20773;DHT22;10546;50.674;4.616;2023-11-18T18:54:04;11.30;99.90
20773;DHT22;10546;50.674;4.616;2023-11-18T18:56:31;11.40;99.90
20773;DHT22;10546;50.674;4.616;2023-11-18T18:58:58;11.30;99.90
20773;DHT22;10546;50.674;4.616;2023-11-18T19:01:26;11.30;99.90
20773;DHT22;10546;50.674;4.616;2023-11-18T19:03:52;11.40;99.90
20773;DHT22;10546;50.674;4.616;2023-11-18T19:06:17;11.40;99.90
20773;DHT22;10546;50.674;4.616;2023-11-18T19:08:44;11.50;99.90
20773;DHT22;10546;50.674;4.616;2023-11-18T19:11:10;11.50;99.90
20773;DHT22;10546;50.674;4.616;2023-11-18T19:13:35;11.50;99.90
20773;DHT22;10546;50.674;4.616;2023-11-18T19:16:01;11.50;99.90
20773;DHT22;10546;50.674;4.616;2023-11-18T19:18:27;11.60;99.90
20773;DHT22;10546;50.674;4.616;2023-11-18T19:20:53;11.60;99.90
20773;DHT22;10546;50.674;4.616;2023-11-18T19:23:18;11.60;99.90
20773;DHT22;10546;50.674;4.616;2023-11-18T19:25:44;11.50;99.90
20773;DHT22;10546;50.674;4.616;2023-11-18T19:28:10;11.40;99.90
20773;DHT22;10546;50.674;4.616;2023-11-18T19:30:37;11.40;99.90
20773;DHT22;10546;50.674;4.616;2023-11-18T19:33:03;11.50;99.90
20773;DHT22;10546;50.674;4.616;2023-11-18T19:35:30;11.60;99.90
20773;DHT22;10546;50.674;4.616;2023-11-18T19:37:59;11.60;99.90
20773;DHT22;10546;50.674;4.616;2023-11-18T19:40:27;11.70;99.90
20773;DHT22;10546;50.674;4.616;2023-11-18T19:42:53;11.60;99.90
20773;DHT22;10546;50.674;4.616;2023-11-18T19:45:18;11.50;99.90
20773;DHT22;10546;50.674;4.616;2023-11-18T19:47:44;11.50;99.90
20773;DHT22;10546;50.674;4.616;2023-11-18T19:50:10;11.60;99.90
20773;DHT22;10546;50.674;4.616;2023-11-18T19:52:37;11.60;99.90
20773;DHT22;10546;50.674;4.616;2023-11-18T19:55:04;11.70;99.90
20773;DHT22;10546;50.674;4.616;2023-11-18T19:57:29;11.70;99.90
20773;DHT22;10546;50.674;4.616;2023-11-18T19:59:56;11.70;99.90
20773;DHT22;10546;50.674;4.616;2023-11-18T20:02:24;11.70;99.90
20773;DHT22;10546;50.674;4.616;2023-11-18T20:04:50;11.80;99.90
20773;DHT22;10546;50.674;4.616;2023-11-18T20:07:16;11.90;99.90
20773;DHT22;10546;50.674;4.616;2023-11-18T20:09:44;11.80;99.90
20773;DHT22;10546;50.674;4.616;2023-11-18T20:12:09;11.90;99.90
20773;DHT22;10546;50.674;4.616;2023-11-18T20:14:35;11.90;99.90
20773;DHT22;10546;50.674;4.616;2023-11-18T20:17:02;12.00;99.90
20773;DHT22;10546;50.674;4.616;2023-11-18T20:19:28;12.00;99.90
20773;DHT22;10546;50.674;4.616;2023-11-18T20:21:54;12.10;99.90
20773;DHT22;10546;50.674;4.616;2023-11-18T20:24:21;12.00;99.90
20773;DHT22;10546;50.674;4.616;2023-11-18T20:26:49;12.20;99.90
20773;DHT22;10546;50.674;4.616;2023-11-18T20:29:16;12.10;99.90
20773;DHT22;10546;50.674;4.616;2023-11-18T20:31:46;12.10;99.90
20773;DHT22;10546;50.674;4.616;2023-11-18T20:34:12;12.20;99.90
20773;DHT22;10546;50.674;4.616;2023-11-18T20:36:38;12.30;99.90
20773;DHT22;10546;50.674;4.616;2023-11-18T20:39:06;12.40;99.90
20773;DHT22;10546;50.674;4.616;2023-11-18T20:41:32;12.20;99.90
20773;DHT22;10546;50.674;4.616;2023-11-18T20:43:58;12.30;99.90
20773;DHT22;10546;50.674;4.616;2023-11-18T20:46:25;12.40;99.90
20773;DHT22;10546;50.674;4.616;2023-11-18T20:48:51;12.30;99.90
20773;DHT22;10546;50.674;4.616;2023-11-18T20:51:17;12.40;99.90
20773;DHT22;10546;50.674;4.616;2023-11-18T20:53:43;12.50;99.90
20773;DHT22;10546;50.674;4.616;2023-11-18T20:56:09;12.50;99.90
20773;DHT22;10546;50.674;4.616;2023-11-18T20:58:35;12.40;99.90
20773;DHT22;10546;50.674;4.616;2023-11-18T21:01:00;12.50;99.90
20773;DHT22;10546;50.674;4.616;2023-11-18T21:03:26;12.50;99.90
20773;DHT22;10546;50.674;4.616;2023-11-18T21:05:53;12.60;99.90
20773;DHT22;10546;50.674;4.616;2023-11-18T21:08:19;12.50;99.90
20773;DHT22;10546;50.674;4.616;2023-11-18T21:10:45;12.50;99.90
20773;DHT22;10546;50.674;4.616;2023-11-18T21:13:14;12.60;99.90
20773;DHT22;10546;50.674;4.616;2023-11-18T21:15:39;12.60;99.90
20773;DHT22;10546;50.674;4.616;2023-11-18T21:18:06;12.60;99.90
20773;DHT22;10546;50.674;4.616;2023-11-18T21:20:42;12.60;99.90
20773;DHT22;10546;50.674;4.616;2023-11-18T21:23:08;12.60;99.90
20773;DHT22;10546;50.674;4.616;2023-11-18T21:25:34;12.70;99.90
20773;DHT22;10546;50.674;4.616;2023-11-18T21:28:00;12.70;99.90
20773;DHT22;10546;50.674;4.616;2023-11-18T21:30:31;12.60;99.90
20773;DHT22;10546;50.674;4.616;2023-11-18T21:32:58;12.70;99.90
20773;DHT22;10546;50.674;4.616;2023-11-18T21:35:25;12.80;99.90
20773;DHT22;10546;50.674;4.616;2023-11-18T21:37:50;12.70;99.90
20773;DHT22;10546;50.674;4.616;2023-11-18T21:40:18;12.70;99.90
20773;DHT22;10546;50.674;4.616;2023-11-18T21:42:52;12.80;99.90
20773;DHT22;10546;50.674;4.616;2023-11-18T21:45:19;12.80;99.90
20773;DHT22;10546;50.674;4.616;2023-11-18T21:47:49;12.70;99.90
20773;DHT22;10546;50.674;4.616;2023-11-18T21:50:19;12.70;99.90
20773;DHT22;10546;50.674;4.616;2023-11-18T21:52:45;12.80;99.90
20773;DHT22;10546;50.674;4.616;2023-11-18T21:55:11;12.70;99.90
20773;DHT22;10546;50.674;4.616;2023-11-18T21:57:38;12.70;99.90
20773;DHT22;10546;50.674;4.616;2023-11-18T22:00:05;12.70;99.90
20773;DHT22;10546;50.674;4.616;2023-11-18T22:02:40;12.80;99.90
20773;DHT22;10546;50.674;4.616;2023-11-18T22:05:06;12.90;99.90
20773;DHT22;10546;50.674;4.616;2023-11-18T22:07:35;12.80;99.90
20773;DHT22;10546;50.674;4.616;2023-11-18T22:10:12;12.90;99.90
20773;DHT22;10546;50.674;4.616;2023-11-18T22:12:38;13.00;99.90
20773;DHT22;10546;50.674;4.616;2023-11-18T22:15:07;13.00;99.90
20773;DHT22;10546;50.674;4.616;2023-11-18T22:17:34;13.00;99.90
20773;DHT22;10546;50.674;4.616;2023-11-18T22:20:01;13.00;99.90
20773;DHT22;10546;50.674;4.616;2023-11-18T22:22:26;13.00;99.90
20773;DHT22;10546;50.674;4.616;2023-11-18T22:24:52;13.00;99.90
20773;DHT22;10546;50.674;4.616;2023-11-18T22:27:18;12.90;99.90
20773;DHT22;10546;50.674;4.616;2023-11-18T22:29:44;13.00;99.90
20773;DHT22;10546;50.674;4.616;2023-11-18T22:32:15;13.00;99.90
20773;DHT22;10546;50.674;4.616;2023-11-18T22:34:43;13.00;99.90
20773;DHT22;10546;50.674;4.616;2023-11-18T22:37:09;13.00;99.90
20773;DHT22;10546;50.674;4.616;2023-11-18T22:39:34;13.10;99.90
20773;DHT22;10546;50.674;4.616;2023-11-18T22:42:06;13.10;99.90
20773;DHT22;10546;50.674;4.616;2023-11-18T22:44:32;13.20;99.90
